Saint Marys City, Maryland
Current Conditions -  °F | °C
As of 11:53 AM on Friday 19 Dec 2014 (Local Time) from KNUI Reporting Station
Overcast Overcast  
Wind Chill: 30°   Ceiling: 3400
Heat Index: 38°   Visibility: 10mi
Dew Point: 22°   Wind: 12mph
Humidity: 53%   Direction: 290°WNW
Pressure: 30.15"   Gusts: NA
Location:  38.19°N, 76.43°W
Report Text: KNUI 191653Z AUTO 29010KT 10SM OVC034 03/M06 A3015 RMK AO2 SLP209 T00331056
Loading
Personal Weather Stations






























Interactive Weather Map New forecast layout! Learn more

10-Day Weather Forecast

Advertisements
Track Severe Weather on mobile